map of LJU home
LJU - Airport
Location
City:  Ljubljana, Slovenia
Name:Ljubljana Joze Pucnik
Old (Alt.):Brnik
ICAO:LJLJ
IATA:LJU

Details
Type:Airport (Aerodrome, Airfield)
Use:Public/Civil, International (customs port of entry)
Latitude:4613'25"N (46.223686)
Longitude:1427'27"E (14.457611)
Datum:WGS 1984
Elevation:1273 ft (388 m)
Variation:3.79E (WMM2015 magnetic declination)
0.11 annual change
Runways:1
Longest:10827 × 148 ft (3300 × 45 m), paved

Time
Time Zone:UTC+1 (DST+2)
Local Time:

Weather
METAR:LJLJ 220430Z VRB01KT 9999 MIFG FEW003 SCT150 BKN210 M06/M07 Q1014 R30/CLRD// NOSIG
TAF:LJLJ 220200Z 2203/2303 VRB02KT 9999 SCT035 BKN075
TEMPO 2203/2221 12004KT BKN025
TEMPO 2203/2206 30003KT 5000 BCFG BR SCT001 BKN075 PROB30
TEMPO 2203/2206 -SN
BECMG 2221/2224 3000 -SN OVC015

Related Locations
Nearby:
Farthest:CHT: 11880 mi / 19119 km
Waitangi [Tuuta], CIT, NZ

Find:

   beyond  
but within

Other Information
Maps:
NOTAMs:
Links:
Sources:

  
  • flag of Slovenia
  

Sectional Chart

Flight Planning
at skyvector.com

Satellite Image

Google Maps Satellite view

 

Copyright © 2004-2019 Karl L. Swartz. All rights reserved.
The Great Circle Mapper name and logo are trademarks of the Great Circle Mapper.
All other trademarks mentioned herein belong to their respective owners.
Please see credits for attibutions and further copyright information.

  Follow gcmap on Facebook Follow gcmap on Twitter Follow gcmap on Google+ GCmap on LinkedIn

hCard Microformat

Geo Microformat